createdAt,value
2022-11-02T00:01:41.247Z,12.78
2022-11-02T00:04:11.107Z,12.83
2022-11-02T00:06:41.762Z,12.75
2022-11-02T00:09:11.231Z,12.67
2022-11-02T00:11:41.435Z,12.83
2022-11-02T00:14:09.572Z,12.87
2022-11-02T00:16:40.793Z,12.76
2022-11-02T00:19:10.463Z,12.61
2022-11-02T00:21:40.247Z,12.55
2022-11-02T00:24:11.132Z,12.30
2022-11-02T00:26:41.113Z,12.18
2022-11-02T00:29:10.476Z,11.97
2022-11-02T00:31:38.908Z,11.53
2022-11-02T00:34:07.356Z,11.78
2022-11-02T00:36:35.629Z,11.76
2022-11-02T00:39:04.941Z,11.82
2022-11-02T00:41:33.004Z,11.96
2022-11-02T00:44:03.073Z,11.86
2022-11-02T00:46:31.213Z,11.89
2022-11-02T00:49:00.778Z,11.78
2022-11-02T00:51:28.748Z,11.49
2022-11-02T00:53:57.672Z,11.30
2022-11-02T00:56:26.330Z,11.32
2022-11-02T00:58:54.609Z,11.48
2022-11-02T01:01:24.448Z,11.48
2022-11-02T01:03:52.895Z,11.44
2022-11-02T01:06:21.978Z,11.19
2022-11-02T01:08:51.456Z,10.99
2022-11-02T01:11:21.611Z,10.77
2022-11-02T01:13:54.623Z,10.61
2022-11-02T01:16:24.609Z,10.54
2022-11-02T01:18:54.095Z,10.43
2022-11-02T01:21:25.232Z,10.30
2022-11-02T01:23:54.114Z,10.17
2022-11-02T01:26:22.796Z,9.99
2022-11-02T01:28:51.729Z,9.98
2022-11-02T01:31:20.156Z,9.99
2022-11-02T01:33:50.416Z,9.80
2022-11-02T01:38:51.780Z,10.15
2022-11-02T01:41:20.109Z,10.26
2022-11-02T01:43:53.296Z,10.32
2022-11-02T01:46:24.203Z,10.21
2022-11-02T01:48:58.524Z,10.00
2022-11-02T01:51:30.909Z,10.16
2022-11-02T01:54:03.819Z,10.30
2022-11-02T01:56:38.512Z,10.37
2022-11-02T01:59:13.760Z,10.31
2022-11-02T02:01:42.235Z,9.97
2022-11-02T02:04:14.748Z,10.24
2022-11-02T02:06:46.054Z,10.13
2022-11-02T02:09:15.133Z,10.08
2022-11-02T02:11:43.522Z,9.74
2022-11-02T02:14:17.338Z,9.89
2022-11-02T02:17:00.330Z,9.74
2022-11-02T02:19:42.300Z,9.90
2022-11-02T02:22:28.149Z,9.82
2022-11-02T02:25:08.158Z,9.78
2022-11-02T02:27:54.909Z,9.54
2022-11-02T02:30:23.972Z,9.74
2022-11-02T02:32:58.772Z,9.62
2022-11-02T02:35:32.159Z,9.82
2022-11-02T02:38:04.504Z,9.99
2022-11-02T02:40:38.397Z,9.98
2022-11-02T02:43:12.244Z,10.04
2022-11-02T02:45:46.042Z,10.13
2022-11-02T02:48:18.250Z,9.94
2022-11-02T02:50:50.011Z,9.78
2022-11-02T02:53:22.896Z,9.68
2022-11-02T02:55:52.537Z,9.60
2022-11-02T02:58:26.130Z,9.39
2022-11-02T03:00:55.749Z,9.46
2022-11-02T03:03:27.799Z,9.41
2022-11-02T03:06:07.605Z,9.39
2022-11-02T03:08:39.061Z,9.27
2022-11-02T03:11:14.078Z,9.26
2022-11-02T03:13:59.909Z,9.11
2022-11-02T03:16:45.963Z,9.06
2022-11-02T03:19:22.161Z,8.94
2022-11-02T03:21:56.780Z,8.62
2022-11-02T03:24:30.977Z,8.84
2022-11-02T03:27:09.599Z,8.74
2022-11-02T03:29:47.186Z,8.75
2022-11-02T03:32:25.394Z,8.71
2022-11-02T03:34:59.813Z,8.78
2022-11-02T03:37:32.899Z,8.55
2022-11-02T03:40:08.494Z,8.48
2022-11-02T03:42:38.292Z,8.38
2022-11-02T03:45:12.606Z,8.35
2022-11-02T03:47:46.519Z,8.32
2022-11-02T03:50:19.306Z,8.35
2022-11-02T03:52:53.652Z,8.38
2022-11-02T03:55:29.418Z,8.36
2022-11-02T03:57:57.993Z,8.39
2022-11-02T04:00:31.701Z,8.26
2022-11-02T04:03:04.326Z,8.24
2022-11-02T04:05:36.619Z,8.31
2022-11-02T04:08:24.586Z,8.28
2022-11-02T04:11:11.603Z,8.25
2022-11-02T04:13:57.591Z,8.17
2022-11-02T04:16:28.616Z,8.16
2022-11-02T04:19:14.708Z,8.09
2022-11-02T04:22:03.307Z,8.26
2022-11-02T04:24:49.352Z,8.31
2022-11-02T04:27:20.923Z,8.14
2022-11-02T04:29:50.687Z,8.47
2022-11-02T04:32:36.049Z,8.54
2022-11-02T04:35:04.734Z,8.52
2022-11-02T04:37:50.405Z,8.43
2022-11-02T04:40:19.040Z,8.49
2022-11-02T04:42:52.262Z,8.59
2022-11-02T04:45:21.134Z,8.60
2022-11-02T04:47:50.990Z,8.47
2022-11-02T04:50:20.039Z,8.69
2022-11-02T04:52:48.109Z,8.58
2022-11-02T04:55:16.752Z,8.56
2022-11-02T04:57:47.171Z,8.67
2022-11-02T05:00:17.101Z,8.74
2022-11-02T05:02:47.260Z,8.78
2022-11-02T05:05:18.082Z,8.83
2022-11-02T05:07:47.859Z,8.71
2022-11-02T05:10:17.261Z,8.75
2022-11-02T05:12:45.658Z,8.72
2022-11-02T05:15:13.889Z,8.84
2022-11-02T05:17:42.137Z,8.87
2022-11-02T05:20:11.056Z,8.93
2022-11-02T05:22:43.856Z,8.95
2022-11-02T05:25:13.223Z,8.93
2022-11-02T05:27:41.671Z,8.82
2022-11-02T05:30:10.744Z,9.12
2022-11-02T05:32:39.510Z,9.20
2022-11-02T05:35:08.477Z,9.23
2022-11-02T05:37:36.510Z,9.32
2022-11-02T05:40:10.085Z,9.44
2022-11-02T05:42:39.542Z,9.04
2022-11-02T05:45:09.175Z,9.11
2022-11-02T05:47:37.569Z,9.02
2022-11-02T05:50:06.302Z,8.81
2022-11-02T05:52:36.836Z,8.70
2022-11-02T05:55:08.920Z,8.63
2022-11-02T05:57:37.431Z,8.50
2022-11-02T06:00:06.547Z,8.43
2022-11-02T06:02:36.518Z,8.33
2022-11-02T06:05:05.096Z,8.17
2022-11-02T06:07:34.110Z,8.17
2022-11-02T06:10:03.009Z,8.25
2022-11-02T06:12:32.317Z,8.13
2022-11-02T06:15:00.570Z,8.26
2022-11-02T06:17:29.005Z,8.26
2022-11-02T06:19:56.986Z,8.46
2022-11-02T06:22:25.102Z,8.65
2022-11-02T06:24:54.774Z,8.79
2022-11-02T06:27:24.180Z,8.84
2022-11-02T06:29:54.056Z,8.96
2022-11-02T06:32:22.366Z,8.92
2022-11-02T06:34:50.857Z,9.05
2022-11-02T06:37:19.474Z,9.27
2022-11-02T06:39:47.680Z,9.25
2022-11-02T06:42:16.009Z,9.59
2022-11-02T06:44:44.036Z,9.65
2022-11-02T06:47:13.997Z,9.48
2022-11-02T06:49:42.282Z,9.72
2022-11-02T06:52:10.752Z,9.92
2022-11-02T06:54:38.828Z,9.76
2022-11-02T06:57:07.665Z,10.08
2022-11-02T06:59:35.718Z,10.11
2022-11-02T07:02:04.128Z,10.20
2022-11-02T07:04:34.065Z,10.21
2022-11-02T07:07:02.197Z,10.41
2022-11-02T07:09:33.383Z,10.56
2022-11-02T07:12:01.791Z,10.61
2022-11-02T07:14:29.853Z,10.74
2022-11-02T07:16:58.488Z,10.91
2022-11-02T07:19:29.871Z,11.08
2022-11-02T07:21:59.771Z,11.19
2022-11-02T07:24:28.135Z,11.17
2022-11-02T07:26:56.779Z,11.59
2022-11-02T07:29:26.931Z,11.48
2022-11-02T07:31:56.164Z,11.67
2022-11-02T07:34:24.646Z,11.75
2022-11-02T07:36:52.930Z,11.61
2022-11-02T07:39:22.940Z,11.80
2022-11-02T07:41:52.170Z,11.93
2022-11-02T07:44:20.605Z,12.20
2022-11-02T07:46:48.982Z,12.34
2022-11-02T07:49:21.299Z,12.62
2022-11-02T07:51:51.013Z,12.65
2022-11-02T07:54:19.286Z,12.82
2022-11-02T07:56:50.050Z,12.95
2022-11-02T07:59:19.300Z,13.16
2022-11-02T08:01:47.440Z,13.34
2022-11-02T08:04:15.702Z,13.46
2022-11-02T08:06:44.532Z,13.71
2022-11-02T08:09:13.277Z,13.79
2022-11-02T08:11:41.129Z,13.87
2022-11-02T08:14:11.491Z,13.97
2022-11-02T08:16:40.084Z,14.06
2022-11-02T08:19:08.409Z,14.34
2022-11-02T08:21:37.606Z,14.54
2022-11-02T08:24:06.460Z,14.83
2022-11-02T08:26:35.212Z,14.92
2022-11-02T08:29:04.648Z,14.93
2022-11-02T08:31:34.360Z,14.42
2022-11-02T08:34:02.249Z,13.89
2022-11-02T08:36:30.685Z,13.38
2022-11-02T08:38:58.611Z,13.09
2022-11-02T08:41:26.796Z,12.93
2022-11-02T08:43:55.021Z,12.84
2022-11-02T08:46:23.453Z,12.94
2022-11-02T08:48:55.803Z,12.85
2022-11-02T08:51:23.882Z,12.74
2022-11-02T08:53:52.204Z,12.54
2022-11-02T08:56:20.429Z,12.59
2022-11-02T08:58:49.780Z,12.63
2022-11-02T09:01:17.916Z,12.78
2022-11-02T09:03:46.788Z,12.91
2022-11-02T09:06:17.792Z,13.31
2022-11-02T09:08:46.542Z,13.76
2022-11-02T09:11:15.215Z,14.00
2022-11-02T09:13:44.722Z,14.41
2022-11-02T09:16:13.561Z,14.80
2022-11-02T09:18:43.265Z,15.29
2022-11-02T09:21:12.888Z,15.45
2022-11-02T09:23:43.947Z,15.97
2022-11-02T09:26:11.902Z,16.20
2022-11-02T09:28:39.834Z,16.35
2022-11-02T09:31:10.757Z,16.44
2022-11-02T09:33:40.117Z,16.63
2022-11-02T09:36:09.158Z,16.81
2022-11-02T09:38:38.460Z,16.70
2022-11-02T09:41:15.676Z,17.06
2022-11-02T09:43:54.813Z,17.21
2022-11-02T09:46:27.560Z,17.43
2022-11-02T09:48:58.696Z,17.70
2022-11-02T09:51:34.217Z,17.80
2022-11-02T09:54:13.088Z,18.07
2022-11-02T09:56:45.985Z,18.04
2022-11-02T09:59:17.520Z,18.58
2022-11-02T10:01:57.019Z,18.81
2022-11-02T10:04:55.278Z,19.03
2022-11-02T10:07:35.170Z,19.30
2022-11-02T10:10:13.721Z,19.36
2022-11-02T10:12:52.573Z,19.60
2022-11-02T10:15:24.051Z,19.75
2022-11-02T10:17:57.547Z,19.97
2022-11-02T10:20:28.255Z,20.02
2022-11-02T10:23:03.891Z,20.23
2022-11-02T10:25:32.549Z,20.44
2022-11-02T10:28:07.222Z,20.65
2022-11-02T10:30:36.103Z,20.62
2022-11-02T10:33:14.298Z,20.60
2022-11-02T10:39:00.608Z,21.16
2022-11-02T10:41:52.498Z,21.24
2022-11-02T10:44:45.314Z,21.35
2022-11-02T10:47:19.042Z,20.98
2022-11-02T10:50:20.555Z,21.55
2022-11-02T10:52:49.074Z,21.78
2022-11-02T10:55:28.815Z,21.92
2022-11-02T10:58:00.265Z,22.07
2022-11-02T11:00:44.705Z,22.21
2022-11-02T11:03:15.148Z,22.37
2022-11-02T11:05:59.390Z,22.50
2022-11-02T11:08:32.671Z,22.69
2022-11-02T11:11:18.759Z,22.79
2022-11-02T11:16:49.127Z,23.11
2022-11-02T11:19:40.364Z,23.20
2022-11-02T11:22:26.310Z,23.43
2022-11-02T11:24:56.297Z,23.55
2022-11-02T11:27:25.123Z,23.71
2022-11-02T11:29:58.587Z,23.78
2022-11-02T11:32:30.855Z,23.91
2022-11-02T11:35:02.598Z,23.94
2022-11-02T11:37:31.395Z,24.15
2022-11-02T11:40:02.830Z,24.20
2022-11-02T11:42:35.997Z,24.08
2022-11-02T11:45:07.429Z,24.61
2022-11-02T11:47:40.338Z,24.94
2022-11-02T11:50:24.832Z,25.02
2022-11-02T11:53:18.501Z,25.34
2022-11-02T11:55:49.674Z,25.41
2022-11-02T11:58:21.879Z,25.59
2022-11-02T12:01:09.373Z,25.67
2022-11-02T12:03:54.540Z,25.55
2022-11-02T12:06:30.444Z,25.39
2022-11-02T12:09:12.977Z,25.58
2022-11-02T12:11:51.682Z,25.86
2022-11-02T12:14:34.786Z,25.66
2022-11-02T12:17:19.709Z,25.70
2022-11-02T12:20:12.563Z,25.61
2022-11-02T12:22:51.924Z,25.58
2022-11-02T12:25:35.272Z,25.57
2022-11-02T12:28:20.493Z,25.55
2022-11-02T12:31:00.043Z,25.52
2022-11-02T12:33:39.597Z,25.47
2022-11-02T12:36:42.338Z,25.52
2022-11-02T12:39:29.425Z,25.81
2022-11-02T12:42:11.735Z,25.86
2022-11-02T12:45:21.404Z,25.94
2022-11-02T12:47:57.044Z,25.60
2022-11-02T12:50:36.713Z,25.88
2022-11-02T12:53:22.672Z,25.84
2022-11-02T12:55:55.481Z,25.93
2022-11-02T12:58:27.312Z,25.85
2022-11-02T13:01:00.086Z,25.69
2022-11-02T13:03:40.198Z,25.74
2022-11-02T13:06:15.158Z,25.63
2022-11-02T13:08:51.633Z,25.76
2022-11-02T13:11:25.682Z,25.62
2022-11-02T13:13:58.011Z,25.81
2022-11-02T13:16:43.686Z,25.73
2022-11-02T13:19:19.619Z,25.77
2022-11-02T13:21:55.022Z,25.75
2022-11-02T13:24:32.362Z,25.68
2022-11-02T13:29:57.772Z,25.59
2022-11-02T13:32:34.117Z,25.47
2022-11-02T13:35:09.175Z,25.57
2022-11-02T13:37:41.920Z,25.26
2022-11-02T13:40:18.532Z,25.70
2022-11-02T13:46:18.987Z,25.71
2022-11-02T13:48:58.853Z,25.50
2022-11-02T13:51:32.552Z,26.09
2022-11-02T13:54:04.215Z,26.78
2022-11-02T13:56:37.660Z,27.41
2022-11-02T13:59:09.066Z,27.89
2022-11-02T14:01:42.078Z,28.12
2022-11-02T14:04:12.409Z,28.66
2022-11-02T14:06:52.148Z,28.38
2022-11-02T14:09:35.456Z,26.93
2022-11-02T14:12:29.953Z,26.16
2022-11-02T14:15:49.947Z,25.86
2022-11-02T14:18:31.457Z,25.65
2022-11-02T14:21:00.783Z,25.35
2022-11-02T14:23:39.665Z,25.27
2022-11-02T14:26:34.049Z,25.10
2022-11-02T14:29:27.103Z,24.91
2022-11-02T14:32:05.386Z,24.84
2022-11-02T14:34:58.196Z,24.74
2022-11-02T14:37:45.753Z,24.63
2022-11-02T14:40:28.280Z,24.52
2022-11-02T14:43:45.750Z,24.48
2022-11-02T14:46:25.390Z,24.34
2022-11-02T14:48:57.734Z,24.33
2022-11-02T14:51:29.092Z,24.16
2022-11-02T14:53:59.839Z,24.17
2022-11-02T14:56:49.665Z,24.02
2022-11-02T14:59:21.262Z,24.07
2022-11-02T15:02:05.809Z,24.06
2022-11-02T15:04:36.392Z,23.76
2022-11-02T15:07:07.894Z,23.87
2022-11-02T15:09:56.855Z,23.79
2022-11-02T15:12:34.800Z,23.67
2022-11-02T15:15:26.797Z,23.49
2022-11-02T15:18:23.291Z,23.33
2022-11-02T15:21:25.361Z,23.29
2022-11-02T15:24:05.666Z,22.84
2022-11-02T15:26:42.462Z,22.89
2022-11-02T15:29:18.124Z,22.88
2022-11-02T15:31:54.853Z,22.83
2022-11-02T15:34:32.846Z,22.78
2022-11-02T15:37:04.511Z,22.81
2022-11-02T15:39:33.517Z,22.78
2022-11-02T15:42:14.517Z,22.73
2022-11-02T15:45:26.707Z,22.59
2022-11-02T15:48:13.331Z,22.61
2022-11-02T15:50:54.758Z,22.21
2022-11-02T15:53:49.972Z,22.38
2022-11-02T15:56:29.720Z,22.30
2022-11-02T15:59:45.876Z,22.30
2022-11-02T16:02:25.205Z,22.09
2022-11-02T16:04:56.129Z,21.98
2022-11-02T16:07:33.270Z,21.82
2022-11-02T16:10:23.302Z,21.69
2022-11-02T16:13:04.915Z,21.61
2022-11-02T16:15:32.861Z,21.59
2022-11-02T16:18:01.248Z,21.53
2022-11-02T16:20:31.078Z,21.53
2022-11-02T16:23:02.215Z,21.56
2022-11-02T16:25:39.904Z,21.46
2022-11-02T16:28:20.380Z,21.48
2022-11-02T16:31:19.059Z,21.35
2022-11-02T16:33:50.902Z,21.24
2022-11-02T16:36:21.759Z,21.29
2022-11-02T16:38:59.742Z,21.27
2022-11-02T16:41:29.881Z,21.26
2022-11-02T16:44:01.120Z,21.26
2022-11-02T16:46:41.103Z,21.29
2022-11-02T16:49:16.902Z,21.02
2022-11-02T16:51:54.094Z,21.21
2022-11-02T16:54:40.594Z,20.89
2022-11-02T16:57:17.432Z,21.14
2022-11-02T16:59:52.076Z,21.02
2022-11-02T17:02:24.526Z,20.97
2022-11-02T17:05:02.669Z,20.68
2022-11-02T17:07:37.044Z,20.93
2022-11-02T17:10:09.083Z,20.70
2022-11-02T17:12:40.672Z,20.88
2022-11-02T17:15:18.282Z,20.64
2022-11-02T17:17:46.693Z,20.37
2022-11-02T17:20:21.151Z,20.79
2022-11-02T17:22:58.016Z,20.78
2022-11-02T17:25:29.146Z,20.73
2022-11-02T17:27:59.213Z,20.75
2022-11-02T17:31:00.728Z,20.66
2022-11-02T17:33:31.746Z,20.58
2022-11-02T17:36:07.124Z,20.55
2022-11-02T17:38:35.985Z,20.55
2022-11-02T17:41:25.883Z,20.55
2022-11-02T17:43:53.236Z,20.35
2022-11-02T17:46:22.515Z,20.28
2022-11-02T17:48:50.478Z,20.18
2022-11-02T17:51:21.967Z,20.08
2022-11-02T17:53:50.566Z,20.17
2022-11-02T17:56:20.364Z,20.15
2022-11-02T17:58:48.575Z,20.22
2022-11-02T18:01:17.128Z,20.26
2022-11-02T18:03:46.313Z,20.22
2022-11-02T18:06:14.314Z,20.17
2022-11-02T18:09:01.105Z,20.14
2022-11-02T18:11:30.717Z,20.08
2022-11-02T18:13:59.011Z,20.18
2022-11-02T18:16:27.500Z,20.13
2022-11-02T18:18:55.667Z,20.05
2022-11-02T18:21:24.122Z,20.18
2022-11-02T18:23:52.528Z,20.09
2022-11-02T18:26:20.744Z,19.96
2022-11-02T18:28:50.183Z,19.97
2022-11-02T18:31:19.955Z,20.11
2022-11-02T18:33:48.255Z,19.99
2022-11-02T18:36:16.361Z,20.04
2022-11-02T18:38:44.506Z,20.06
2022-11-02T18:41:26.418Z,20.18
2022-11-02T18:44:03.546Z,20.18
2022-11-02T18:46:34.194Z,20.13
2022-11-02T18:49:02.630Z,20.03
2022-11-02T18:51:30.993Z,20.03
2022-11-02T18:54:01.112Z,20.13
2022-11-02T18:56:29.501Z,20.18
2022-11-02T18:58:59.196Z,20.17
2022-11-02T19:01:28.625Z,20.24
2022-11-02T19:03:58.321Z,20.13
2022-11-02T19:06:44.780Z,20.13
2022-11-02T19:09:20.709Z,20.18
2022-11-02T19:11:51.640Z,20.15
2022-11-02T19:14:23.033Z,20.19
2022-11-02T19:16:51.153Z,20.17
2022-11-02T19:19:19.709Z,20.16
2022-11-02T19:21:48.884Z,20.18
2022-11-02T19:24:16.851Z,20.06
2022-11-02T19:26:44.901Z,19.89
2022-11-02T19:29:13.625Z,19.82
2022-11-02T19:31:43.893Z,19.77
2022-11-02T19:34:12.145Z,19.67
2022-11-02T19:36:40.733Z,19.71
2022-11-02T19:39:10.004Z,19.70
2022-11-02T19:41:38.480Z,19.62
2022-11-02T19:44:07.637Z,19.57
2022-11-02T19:46:35.992Z,19.55
2022-11-02T19:49:06.161Z,19.48
2022-11-02T19:51:35.789Z,19.67
2022-11-02T19:54:04.340Z,19.62
2022-11-02T19:56:34.638Z,19.50
2022-11-02T19:59:03.579Z,19.53
2022-11-02T20:01:33.889Z,19.46
2022-11-02T20:04:03.137Z,19.55
2022-11-02T20:06:36.731Z,19.39
2022-11-02T20:09:06.814Z,19.44
2022-11-02T20:11:36.845Z,19.56
2022-11-02T20:14:06.190Z,19.54
2022-11-02T20:16:35.349Z,19.48
2022-11-02T20:19:03.682Z,19.58
2022-11-02T20:21:38.226Z,19.65
2022-11-02T20:24:09.827Z,19.68
2022-11-02T20:26:41.524Z,19.54
2022-11-02T20:29:13.631Z,19.55
2022-11-02T20:31:46.282Z,19.49
2022-11-02T20:34:16.052Z,19.50
2022-11-02T20:36:47.640Z,19.43
2022-11-02T20:39:15.766Z,19.45
2022-11-02T20:41:44.018Z,19.40
2022-11-02T20:44:12.306Z,19.42
2022-11-02T20:46:42.231Z,19.46
2022-11-02T20:49:22.181Z,19.49
2022-11-02T20:51:59.286Z,19.53
2022-11-02T20:54:30.079Z,19.39
2022-11-02T20:56:58.752Z,19.30
2022-11-02T20:59:27.229Z,19.29
2022-11-02T21:01:56.355Z,19.29
2022-11-02T21:04:24.807Z,19.32
2022-11-02T21:06:53.394Z,18.86
2022-11-02T21:09:22.783Z,19.22
2022-11-02T21:12:08.615Z,19.36
2022-11-02T21:14:36.676Z,19.36
2022-11-02T21:17:06.929Z,19.12
2022-11-02T21:19:35.166Z,19.46
2022-11-02T21:22:03.448Z,19.37
2022-11-02T21:24:33.015Z,19.37
2022-11-02T21:27:01.258Z,19.48
2022-11-02T21:29:29.432Z,19.43
2022-11-02T21:31:57.704Z,19.29
2022-11-02T21:34:26.892Z,19.18
2022-11-02T21:36:55.064Z,19.07
2022-11-02T21:39:23.319Z,19.08
2022-11-02T21:41:53.755Z,19.03
2022-11-02T21:44:21.812Z,19.04
2022-11-02T21:46:51.195Z,18.99
2022-11-02T21:49:19.483Z,19.22
2022-11-02T21:51:47.774Z,19.19
2022-11-02T21:54:16.254Z,18.96
2022-11-02T21:56:46.476Z,19.15
2022-11-02T21:59:15.997Z,19.19
2022-11-02T22:01:47.444Z,19.05
2022-11-02T22:04:19.586Z,19.02
2022-11-02T22:06:49.126Z,19.01
2022-11-02T22:09:17.346Z,18.93
2022-11-02T22:11:45.971Z,18.83
2022-11-02T22:14:16.018Z,18.71
2022-11-02T22:16:45.025Z,18.78
2022-11-02T22:19:15.806Z,18.84
2022-11-02T22:21:45.594Z,18.72
2022-11-02T22:24:14.108Z,18.71
2022-11-02T22:26:42.595Z,18.95
2022-11-02T22:29:10.977Z,19.11
2022-11-02T22:31:41.835Z,19.01
2022-11-02T22:34:13.314Z,19.04
2022-11-02T22:36:45.646Z,18.99
2022-11-02T22:39:14.441Z,19.05
2022-11-02T22:41:44.357Z,19.15
2022-11-02T22:44:15.118Z,19.00
2022-11-02T22:46:46.553Z,19.03
2022-11-02T22:49:16.977Z,18.82
2022-11-02T22:51:46.828Z,18.60
2022-11-02T22:54:16.252Z,18.45
2022-11-02T22:56:44.833Z,18.41
2022-11-02T22:59:13.316Z,17.89
2022-11-02T23:01:42.675Z,18.24
2022-11-02T23:04:13.776Z,18.09
2022-11-02T23:06:42.977Z,17.91
2022-11-02T23:09:12.665Z,17.78
2022-11-02T23:11:39.856Z,17.83
2022-11-02T23:14:10.421Z,17.72
2022-11-02T23:16:41.040Z,17.59
2022-11-02T23:19:30.484Z,17.66
2022-11-02T23:22:19.469Z,17.67
2022-11-02T23:25:07.567Z,17.91
2022-11-02T23:27:59.259Z,17.94
2022-11-02T23:30:47.624Z,17.96
2022-11-02T23:33:16.104Z,17.86
2022-11-02T23:36:02.405Z,18.02
2022-11-02T23:38:45.859Z,17.73
2022-11-02T23:41:15.879Z,17.96
2022-11-02T23:43:44.052Z,17.94
2022-11-02T23:46:13.088Z,17.84
2022-11-02T23:48:44.866Z,17.76
2022-11-02T23:51:33.338Z,17.88
2022-11-02T23:54:20.667Z,17.74
2022-11-02T23:56:53.156Z,17.71
2022-11-02T23:59:21.764Z,17.71
